Time;durP1;ratioP1;P1;durP2;ratioP2;P2;SDS_P1;SDS_P2;PMS_P1;PMS_P2;Temp;Humidity;BMP_temperature;BMP_pressure;BME280_temperature;BME280_humidity;BME280_pressure;Samples;Min_cycle;Max_cycle;Signal;HPM_P1;HPM_P2
2023/05/24 00:02:26;;;;;;;16.40;4.70;;;;;;;42.33;36.20;100975.50;5094071;28;20432;-87
2023/05/24 00:04:52;;;;;;;14.37;5.57;;;;;;;42.25;36.28;100968.22;5094625;28;20421;-87
2023/05/24 00:07:18;;;;;;;12.73;3.43;;;;;;;42.19;35.99;100964.09;5094151;28;20421;-86
2023/05/24 00:09:44;;;;;;;16.47;4.37;;;;;;;42.20;36.30;100967.63;5094375;28;20500;-85
2023/05/24 00:12:10;;;;;;;14.10;5.50;;;;;;;42.25;36.31;100948.34;5091899;28;20556;-86
2023/05/24 00:14:36;;;;;;;17.33;4.60;;;;;;;42.19;36.27;100958.66;5092829;28;20975;-86
2023/05/24 00:17:02;;;;;;;10.27;4.10;;;;;;;42.19;36.21;100953.19;5091927;28;20421;-85
2023/05/24 00:19:28;;;;;;;15.20;5.40;;;;;;;42.21;35.86;100955.59;5092771;28;20448;-86
2023/05/24 00:21:54;;;;;;;12.93;5.37;;;;;;;42.27;36.28;100954.25;5092528;28;21003;-85
2023/05/24 00:24:20;;;;;;;15.23;6.20;;;;;;;42.26;36.36;100948.00;5091368;28;20566;-85
2023/05/24 00:26:47;;;;;;;15.40;4.70;;;;;;;42.32;36.34;100952.13;5092676;28;20578;-85
2023/05/24 00:29:13;;;;;;;9.83;3.20;;;;;;;42.21;36.54;100948.19;5092616;28;20425;-86
2023/05/24 00:31:39;;;;;;;18.87;4.53;;;;;;;42.21;36.36;100952.84;5092518;28;20413;-86
2023/05/24 00:34:05;;;;;;;12.50;4.97;;;;;;;42.17;36.36;100941.81;5092444;28;20465;-85
2023/05/24 00:36:31;;;;;;;17.40;5.57;;;;;;;42.13;36.68;100935.41;5092301;28;20794;-85
2023/05/24 00:38:58;;;;;;;15.33;4.73;;;;;;;42.21;36.96;100941.94;5092326;28;20998;-85
2023/05/24 00:41:25;;;;;;;18.03;5.93;;;;;;;42.24;36.79;100944.81;5091885;28;20590;-86
2023/05/24 00:43:51;;;;;;;11.87;4.53;;;;;;;42.23;36.15;100945.13;5089709;28;20421;-86
2023/05/24 00:46:31;;;;;;;17.53;6.50;;;;;;;42.19;36.41;100945.03;5092004;28;20413;-87
2023/05/24 00:48:59;;;;;;;13.27;5.27;;;;;;;42.25;36.68;100940.97;5090482;28;20344;-86
2023/05/24 00:51:26;;;;;;;10.40;4.73;;;;;;;42.16;36.64;100940.22;5092194;28;20409;-86
2023/05/24 00:53:53;;;;;;;8.23;3.73;;;;;;;42.17;36.07;100938.28;5091605;28;20421;-86
2023/05/24 00:56:19;;;;;;;14.97;5.40;;;;;;;42.22;36.03;100941.63;5091655;28;20807;-87
2023/05/24 00:58:46;;;;;;;13.60;4.87;;;;;;;42.20;36.36;100941.16;5091927;28;20432;-86
2023/05/24 01:01:13;;;;;;;11.77;4.90;;;;;;;42.11;36.19;100940.38;5091291;28;20828;-87
2023/05/24 01:03:40;;;;;;;12.27;4.13;;;;;;;42.19;36.00;100942.28;5091944;28;20429;-86
2023/05/24 01:06:07;;;;;;;21.17;6.03;;;;;;;42.14;36.50;100931.56;5091600;28;20429;-84
2023/05/24 01:08:50;;;;;;;10.50;4.40;;;;;;;42.23;36.32;100926.06;5093282;28;20421;-86
2023/05/24 01:11:41;;;;;;;19.23;6.17;;;;;;;42.17;36.37;100938.28;5088537;28;20463;-85
2023/05/24 01:14:25;;;;;;;15.83;6.60;;;;;;;42.11;36.48;100929.50;5100841;28;20428;-85
2023/05/24 01:17:05;;;;;;;12.47;7.40;;;;;;;42.19;35.97;100925.94;5086257;28;20432;-85
2023/05/24 01:20:02;;;;;;;19.40;4.67;;;;;;;42.22;36.42;100940.81;5091929;28;20448;-85
2023/05/24 01:22:35;;;;;;;11.63;4.30;;;;;;;42.19;36.65;100939.56;5087202;28;20426;-85
2023/05/24 01:25:07;;;;;;;13.57;4.63;;;;;;;42.22;36.44;100925.25;5100287;28;20424;-85
2023/05/24 01:27:36;;;;;;;13.00;5.30;;;;;;;42.18;36.58;100935.25;5102748;27;20413;-85
2023/05/24 01:30:03;;;;;;;19.17;7.63;;;;;;;42.11;36.59;100934.94;5092396;28;20432;-85
2023/05/24 01:32:30;;;;;;;12.93;5.87;;;;;;;42.18;36.75;100929.00;5091445;28;20425;-85
2023/05/24 01:34:56;;;;;;;11.73;5.43;;;;;;;42.17;36.62;100930.13;5090863;28;20501;-85
2023/05/24 01:37:22;;;;;;;11.93;4.70;;;;;;;42.16;36.60;100921.13;5091476;28;20432;-86
2023/05/24 01:39:49;;;;;;;12.23;4.90;;;;;;;42.18;36.39;100918.91;5090837;28;21065;-85
2023/05/24 01:42:25;;;;;;;13.80;5.63;;;;;;;42.12;36.63;100928.38;5091145;28;21002;-86
2023/05/24 01:45:07;;;;;;;18.80;6.03;;;;;;;42.19;36.58;100934.13;5091015;28;20412;-85
2023/05/24 01:47:57;;;;;;;17.37;6.90;;;;;;;42.23;36.52;100926.84;5091072;28;20445;-85
2023/05/24 01:50:31;;;;;;;18.87;6.20;;;;;;;42.18;36.54;100912.66;5091113;28;20440;-86
2023/05/24 01:53:03;;;;;;;15.17;5.73;;;;;;;42.13;36.54;100924.53;5091092;28;20436;-84
2023/05/24 01:55:31;;;;;;;15.20;5.73;;;;;;;42.25;36.52;100921.09;5092328;28;20442;-84
2023/05/24 01:58:03;;;;;;;18.20;5.50;;;;;;;42.18;37.21;100918.09;5090905;28;20416;-84
2023/05/24 02:00:30;;;;;;;15.60;5.17;;;;;;;42.20;36.91;100919.34;5090781;28;20452;-84
2023/05/24 02:02:57;;;;;;;10.73;6.10;;;;;;;42.25;36.92;100910.97;5092216;28;20519;-84
2023/05/24 02:05:23;;;;;;;16.83;7.00;;;;;;;42.28;36.96;100910.28;5090804;28;21134;-85
2023/05/24 02:07:49;;;;;;;14.00;5.90;;;;;;;42.25;36.85;100918.34;5091037;28;20569;-85
2023/05/24 02:10:15;;;;;;;12.73;5.93;;;;;;;42.19;36.99;100912.31;5091857;28;20413;-84
2023/05/24 02:12:41;;;;;;;17.67;6.63;;;;;;;42.26;36.84;100915.28;5077643;28;20457;-86
2023/05/24 02:15:09;;;;;;;16.60;5.40;;;;;;;42.23;36.75;100915.94;5090435;28;20416;-86
2023/05/24 02:17:35;;;;;;;16.47;5.93;;;;;;;42.28;36.85;100913.00;5091502;28;20487;-85
2023/05/24 02:20:02;;;;;;;24.17;9.60;;;;;;;42.27;37.03;100914.16;5084642;28;20462;-84
2023/05/24 02:22:28;;;;;;;15.50;6.63;;;;;;;42.25;37.15;100902.78;5090720;28;20424;-84
2023/05/24 02:24:54;;;;;;;16.00;5.63;;;;;;;42.30;36.83;100910.78;5090258;28;20427;-85
2023/05/24 02:27:20;;;;;;;12.90;6.80;;;;;;;42.25;36.93;100900.06;5090897;28;20808;-85
2023/05/24 02:29:47;;;;;;;18.40;5.37;;;;;;;42.27;36.57;100905.19;5090508;28;20958;-84
2023/05/24 02:32:13;;;;;;;20.97;5.80;;;;;;;42.27;36.85;100905.97;5090756;28;20416;-87
2023/05/24 02:34:39;;;;;;;23.47;6.67;;;;;;;42.28;36.95;100899.38;5090572;28;20428;-86
2023/05/24 02:37:05;;;;;;;24.83;7.30;;;;;;;42.25;36.75;100899.28;5090734;28;20436;-85
2023/05/24 02:39:31;;;;;;;13.40;6.80;;;;;;;42.29;36.69;100909.16;5090489;28;20179;-85
2023/05/24 02:41:57;;;;;;;12.20;7.10;;;;;;;42.26;36.44;100907.09;5090493;28;20514;-85
2023/05/24 02:44:23;;;;;;;19.27;5.40;;;;;;;42.27;36.38;100908.69;5090898;28;20503;-85
2023/05/24 02:46:49;;;;;;;12.40;5.50;;;;;;;42.29;36.41;100909.16;5090692;28;20532;-84
2023/05/24 02:49:15;;;;;;;15.77;5.40;;;;;;;42.29;36.22;100916.53;5094302;28;20511;-86
2023/05/24 02:51:41;;;;;;;11.73;6.37;;;;;;;42.27;36.07;100897.78;5094083;28;20503;-86
2023/05/24 02:54:07;;;;;;;8.73;4.47;;;;;;;42.28;36.30;100902.09;5094202;28;20861;-86
2023/05/24 02:56:33;;;;;;;17.10;6.50;;;;;;;42.26;36.19;100898.94;5094423;28;20416;-86
2023/05/24 02:58:59;;;;;;;10.23;4.97;;;;;;;42.32;36.26;100897.59;5094120;28;20428;-84
2023/05/24 03:01:25;;;;;;;11.10;5.60;;;;;;;42.37;36.25;100891.13;5093839;28;20468;-85
2023/05/24 03:03:51;;;;;;;16.37;5.93;;;;;;;42.31;36.02;100896.00;5094699;28;20456;-85
2023/05/24 03:06:17;;;;;;;13.77;5.50;;;;;;;42.26;36.07;100895.41;5108213;28;20664;-85
2023/05/24 03:08:43;;;;;;;11.03;4.40;;;;;;;42.33;35.88;100903.84;5080620;28;21023;-84
2023/05/24 03:11:09;;;;;;;15.30;5.10;;;;;;;42.23;36.20;100902.31;5103731;28;20597;-85
2023/05/24 03:13:35;;;;;;;13.10;5.27;;;;;;;42.23;36.32;100898.78;5095076;28;20424;-84
2023/05/24 03:16:01;;;;;;;19.50;7.53;;;;;;;42.20;36.32;100896.75;5094185;28;20463;-85
2023/05/24 03:18:27;;;;;;;15.53;7.77;;;;;;;42.19;36.59;100898.69;5093195;28;20437;-84
2023/05/24 03:20:52;;;;;;;14.20;5.10;;;;;;;42.17;36.61;100903.66;5093856;28;20233;-85
2023/05/24 03:23:18;;;;;;;18.03;6.27;;;;;;;42.12;36.79;100909.31;5093820;28;20538;-84
2023/05/24 03:25:44;;;;;;;9.97;5.43;;;;;;;42.13;36.79;100900.00;5093648;28;20417;-85
2023/05/24 03:28:13;;;;;;;12.20;5.40;;;;;;;42.14;37.28;100905.09;5093479;28;20420;-85
2023/05/24 03:30:39;;;;;;;12.30;6.87;;;;;;;42.01;37.34;100908.91;5093675;28;20409;-84
2023/05/24 03:33:05;;;;;;;14.30;9.10;;;;;;;42.05;37.39;100911.75;5093458;28;20416;-85
2023/05/24 03:35:31;;;;;;;15.40;8.93;;;;;;;42.09;37.58;100909.97;5093434;28;20474;-85
2023/05/24 03:37:57;;;;;;;17.03;7.70;;;;;;;42.11;37.52;100921.31;5093353;28;20504;-86
2023/05/24 03:40:24;;;;;;;16.40;8.93;;;;;;;42.11;37.08;100926.75;5093355;28;20622;-87
2023/05/24 03:42:50;;;;;;;23.13;13.87;;;;;;;42.11;36.86;100924.88;5093343;28;20430;-86
2023/05/24 03:45:16;;;;;;;18.83;10.60;;;;;;;42.09;37.08;100915.41;5093489;28;20420;-87
2023/05/24 03:47:42;;;;;;;19.40;12.40;;;;;;;42.05;36.93;100922.66;5093213;28;20420;-86
2023/05/24 03:50:08;;;;;;;21.50;13.30;;;;;;;42.06;37.16;100927.78;5085362;28;20425;-86
2023/05/24 03:52:34;;;;;;;20.00;10.80;;;;;;;42.08;37.14;100930.16;5087758;28;20221;-87
2023/05/24 03:55:00;;;;;;;26.97;14.20;;;;;;;42.07;37.13;100929.38;5093231;28;20413;-86
2023/05/24 03:57:26;;;;;;;17.00;11.67;;;;;;;42.03;37.10;100924.91;5092534;28;20947;-86
2023/05/24 03:59:52;;;;;;;18.63;13.13;;;;;;;41.97;37.44;100923.53;5092660;28;20420;-86
2023/05/24 04:02:18;;;;;;;25.90;14.30;;;;;;;41.98;37.33;100919.66;5091168;28;20245;-87
2023/05/24 04:04:44;;;;;;;22.10;12.67;;;;;;;42.00;37.60;100911.97;5081119;28;20243;-86
2023/05/24 04:07:12;;;;;;;26.20;13.40;;;;;;;41.96;37.40;100916.47;5090619;28;20676;-85
2023/05/24 04:09:39;;;;;;;20.23;14.40;;;;;;;41.96;37.75;100928.19;5092855;28;20441;-84
2023/05/24 04:12:05;;;;;;;27.73;11.93;;;;;;;41.97;37.40;100923.53;5092435;28;20465;-86
2023/05/24 04:14:31;;;;;;;22.90;14.10;;;;;;;42.01;37.37;100921.75;5093054;28;20427;-85
2023/05/24 04:16:57;;;;;;;19.87;14.30;;;;;;;41.98;37.42;100922.38;5092665;28;20427;-85
2023/05/24 04:19:23;;;;;;;22.07;13.70;;;;;;;41.95;37.03;100914.91;5092461;28;20416;-86
2023/05/24 04:21:49;;;;;;;23.70;14.97;;;;;;;41.95;37.31;100921.13;5092427;28;20480;-85
2023/05/24 04:24:15;;;;;;;18.90;13.60;;;;;;;41.93;37.75;100919.84;5092225;28;21028;-86
2023/05/24 04:26:41;;;;;;;24.83;12.37;;;;;;;41.95;37.45;100923.06;5090660;28;20425;-85
2023/05/24 04:29:07;;;;;;;25.23;13.03;;;;;;;41.97;37.51;100926.25;5092428;28;20524;-85
2023/05/24 04:31:33;;;;;;;22.03;11.53;;;;;;;41.91;37.33;100924.84;5092432;28;20261;-85
2023/05/24 04:33:59;;;;;;;22.70;12.83;;;;;;;41.80;37.54;100924.44;5092418;28;20440;-85
2023/05/24 04:36:25;;;;;;;17.33;11.00;;;;;;;41.90;37.27;100940.41;5092079;28;20441;-86
2023/05/24 04:38:56;;;;;;;19.33;12.50;;;;;;;41.91;37.56;100946.66;5092291;28;20205;-86
2023/05/24 04:41:23;;;;;;;15.63;13.60;;;;;;;41.93;37.47;100945.22;5089103;28;20548;-86
2023/05/24 04:43:49;;;;;;;24.63;15.30;;;;;;;41.97;37.31;100946.13;5081871;28;20448;-85
2023/05/24 04:46:15;;;;;;;23.33;12.30;;;;;;;41.99;37.25;100941.16;5093472;28;20427;-85
2023/05/24 04:48:40;;;;;;;19.90;10.63;;;;;;;42.00;37.68;100950.91;5092390;28;20444;-85
2023/05/24 04:51:06;;;;;;;15.77;11.87;;;;;;;41.99;37.38;100951.22;5091761;28;20224;-85
2023/05/24 04:53:32;;;;;;;17.13;11.47;;;;;;;41.98;37.67;100953.16;5082401;28;20598;-86
2023/05/24 04:55:58;;;;;;;18.37;10.63;;;;;;;41.85;37.52;100946.84;5091535;28;20502;-85
2023/05/24 04:58:24;;;;;;;19.17;11.00;;;;;;;41.74;38.03;100936.63;5111910;28;20416;-86
2023/05/24 05:00:50;;;;;;;22.80;13.50;;;;;;;41.65;38.01;100938.63;5079307;28;20237;-87
2023/05/24 05:03:16;;;;;;;21.80;14.47;;;;;;;41.77;38.13;100947.72;5081061;28;20666;-86
2023/05/24 05:05:43;;;;;;;21.80;16.87;;;;;;;41.85;37.88;100954.22;5091627;28;20181;-86
2023/05/24 05:08:09;;;;;;;26.33;19.03;;;;;;;41.79;38.21;100950.09;5091894;28;20179;-87
2023/05/24 05:10:35;;;;;;;25.10;18.00;;;;;;;41.86;38.22;100958.53;5090926;28;20432;-86
2023/05/24 05:13:01;;;;;;;28.00;16.50;;;;;;;41.85;38.12;100963.19;5091531;28;20171;-86
2023/05/24 05:15:27;;;;;;;25.67;15.73;;;;;;;41.59;38.73;100960.63;5091418;28;20486;-85
2023/05/24 05:17:53;;;;;;;28.47;16.73;;;;;;;41.63;38.63;100966.22;5091299;28;20420;-86
2023/05/24 05:20:19;;;;;;;21.80;15.53;;;;;;;41.63;39.09;100968.94;5090987;28;20424;-85
2023/05/24 05:22:46;;;;;;;25.00;18.90;;;;;;;41.70;38.78;100968.41;5091324;28;20456;-85
2023/05/24 05:25:12;;;;;;;34.30;22.93;;;;;;;41.48;38.99;100974.94;5091324;28;20433;-85
2023/05/24 05:27:38;;;;;;;28.10;18.20;;;;;;;41.46;39.27;100974.47;5091326;28;20520;-84
2023/05/24 05:30:04;;;;;;;28.17;17.37;;;;;;;41.54;39.36;100981.78;5091261;28;20591;-85
2023/05/24 05:32:30;;;;;;;22.50;16.73;;;;;;;41.41;39.59;100972.72;5091463;28;20182;-86
2023/05/24 05:34:56;;;;;;;27.30;19.00;;;;;;;41.34;38.97;100989.56;5091197;28;20483;-84
2023/05/24 05:37:22;;;;;;;28.33;18.90;;;;;;;41.17;39.63;100980.66;5091679;28;20182;-85
2023/05/24 05:39:48;;;;;;;29.80;20.07;;;;;;;41.26;39.28;100982.22;5091114;28;20495;-85
2023/05/24 05:42:14;;;;;;;27.23;14.57;;;;;;;41.25;39.20;100977.91;5091317;28;20284;-84
2023/05/24 05:44:39;;;;;;;25.53;17.43;;;;;;;41.25;38.56;100969.75;5091081;28;20688;-84
2023/05/24 05:47:07;;;;;;;30.50;21.60;;;;;;;41.32;39.21;100969.22;5091178;28;20425;-85
2023/05/24 05:49:35;;;;;;;21.43;14.83;;;;;;;41.35;39.22;100957.69;5090966;28;20213;-85
2023/05/24 05:52:05;;;;;;;31.50;15.70;;;;;;;41.39;39.38;100979.63;5091110;28;20650;-84
2023/05/24 05:54:31;;;;;;;25.83;16.63;;;;;;;41.36;39.61;100974.81;5093400;28;20443;-84
2023/05/24 05:56:57;;;;;;;28.80;20.57;;;;;;;41.42;39.75;100984.41;5101004;28;20443;-85
2023/05/24 05:59:23;;;;;;;34.90;21.90;;;;;;;41.41;39.65;100989.06;5090760;28;20452;-85
2023/05/24 06:01:49;;;;;;;25.07;17.07;;;;;;;41.31;39.54;100987.50;5091141;28;20484;-85
2023/05/24 06:04:16;;;;;;;28.53;18.73;;;;;;;41.33;39.33;100987.19;5090391;28;20428;-84
2023/05/24 06:06:44;;;;;;;37.27;18.53;;;;;;;41.41;39.02;100988.25;5090977;28;20423;-84
2023/05/24 06:09:10;;;;;;;24.80;13.40;;;;;;;41.43;38.18;101005.06;5090991;28;20425;-84
2023/05/24 06:11:38;;;;;;;16.70;11.53;;;;;;;41.39;37.84;101002.22;5090662;28;20460;-84
2023/05/24 06:14:04;;;;;;;17.47;10.80;;;;;;;41.29;38.31;101003.31;5090551;28;20417;-83
2023/05/24 06:16:31;;;;;;;17.27;10.13;;;;;;;41.34;38.54;101005.91;5102809;28;20420;-82
2023/05/24 06:18:57;;;;;;;15.57;11.10;;;;;;;41.15;38.44;101013.63;5083963;28;20443;-84
2023/05/24 06:21:23;;;;;;;16.93;9.57;;;;;;;41.24;39.08;101038.88;5087238;28;20464;-85
2023/05/24 06:23:49;;;;;;;16.93;10.67;;;;;;;41.34;39.05;101052.19;5092907;28;20557;-84
2023/05/24 06:26:14;;;;;;;18.40;12.73;;;;;;;41.30;39.32;101055.84;5082992;28;20196;-85
2023/05/24 06:28:40;;;;;;;21.10;15.10;;;;;;;41.20;38.66;101042.59;5085770;28;20232;-84
2023/05/24 06:31:06;;;;;;;20.17;13.10;;;;;;;41.27;38.94;101035.53;5089834;28;20420;-81
2023/05/24 06:33:32;;;;;;;16.37;10.37;;;;;;;41.23;38.39;101034.56;5092966;28;20171;-82
2023/05/24 06:35:58;;;;;;;16.83;8.60;;;;;;;41.15;37.90;101042.78;5094692;28;20261;-81
2023/05/24 06:38:24;;;;;;;15.03;7.40;;;;;;;41.19;37.77;101060.03;5094472;28;20620;-82
2023/05/24 06:40:50;;;;;;;13.73;6.53;;;;;;;41.20;38.20;101053.50;5094274;28;20248;-81
2023/05/24 06:43:16;;;;;;;15.00;10.50;;;;;;;41.23;38.47;101041.94;5094522;28;20185;-81
2023/05/24 06:45:42;;;;;;;14.73;8.80;;;;;;;41.21;38.69;101053.16;5094366;28;20432;-82
2023/05/24 06:48:08;;;;;;;14.90;10.50;;;;;;;41.20;38.75;101065.19;5094335;28;20449;-81
2023/05/24 06:50:35;;;;;;;17.23;9.67;;;;;;;41.13;39.05;101072.22;5094304;28;20861;-82
2023/05/24 06:53:01;;;;;;;23.33;12.40;;;;;;;41.14;39.47;101077.34;5088877;28;20515;-82
2023/05/24 06:55:28;;;;;;;24.53;10.80;;;;;;;41.18;38.72;101070.13;5088145;28;20421;-82
2023/05/24 06:57:54;;;;;;;20.20;11.23;;;;;;;41.25;38.84;101062.28;5083452;28;20424;-81
2023/05/24 07:00:21;;;;;;;22.90;11.87;;;;;;;41.30;38.66;101069.47;5080121;28;20437;-83
2023/05/24 07:02:47;;;;;;;21.10;12.60;;;;;;;41.26;38.75;101068.53;5101880;28;20448;-80
2023/05/24 07:05:13;;;;;;;16.37;10.23;;;;;;;41.36;38.67;101068.19;5092422;28;20816;-82
2023/05/24 07:07:40;;;;;;;18.00;10.40;;;;;;;41.42;38.88;101066.09;5093966;28;20433;-82
2023/05/24 07:10:08;;;;;;;14.07;9.50;;;;;;;41.48;38.69;101062.06;5086826;28;20432;-82
2023/05/24 07:12:34;;;;;;;17.10;11.47;;;;;;;41.56;38.62;101072.94;5085451;28;20558;-82
2023/05/24 07:15:00;;;;;;;16.40;11.00;;;;;;;41.62;38.87;101081.72;5090273;28;20421;-83
2023/05/24 07:17:26;;;;;;;18.73;10.90;;;;;;;41.70;38.63;101089.06;5094424;28;20427;-83
2023/05/24 07:19:52;;;;;;;15.10;9.33;;;;;;;41.73;38.44;101093.03;5092813;28;20187;-87
2023/05/24 07:22:18;;;;;;;13.80;8.77;;;;;;;41.72;38.33;101094.97;5093371;28;21009;-86
2023/05/24 07:24:43;;;;;;;14.50;8.97;;;;;;;41.69;37.86;101094.84;5091621;28;20457;-88
2023/05/24 07:27:09;;;;;;;15.60;11.17;;;;;;;41.71;37.72;101095.31;5085857;28;20434;-85
2023/05/24 07:29:35;;;;;;;15.30;8.57;;;;;;;41.76;37.69;101098.66;5093397;28;20543;-84
2023/05/24 07:32:02;;;;;;;17.53;11.27;;;;;;;41.77;37.55;101116.63;5093588;28;20869;-85
2023/05/24 07:34:30;;;;;;;21.00;10.17;;;;;;;41.74;37.66;101109.09;5092624;28;20432;-84
2023/05/24 07:36:59;;;;;;;21.00;10.77;;;;;;;41.79;37.93;101094.47;5093449;28;20984;-83
2023/05/24 07:39:26;;;;;;;23.10;14.27;;;;;;;41.83;38.16;101088.06;5090843;28;20802;-86
2023/05/24 07:41:54;;;;;;;24.60;15.20;;;;;;;41.80;37.70;101093.34;5093458;28;20456;-86
2023/05/24 07:44:21;;;;;;;18.87;13.57;;;;;;;41.84;37.13;101097.81;5093316;28;20413;-85
2023/05/24 07:46:47;;;;;;;20.43;10.57;;;;;;;41.87;36.61;101099.13;5093761;28;20425;-87
2023/05/24 07:49:12;;;;;;;17.27;11.23;;;;;;;41.86;36.62;101101.00;5091860;28;20427;-86
2023/05/24 07:51:38;;;;;;;20.40;10.27;;;;;;;41.89;36.39;101098.78;5092889;28;20412;-86
2023/05/24 07:54:05;;;;;;;17.40;10.60;;;;;;;41.92;36.21;101092.66;5086584;28;20214;-86
2023/05/24 07:56:31;;;;;;;17.20;10.30;;;;;;;41.92;36.90;101109.81;5101053;28;20432;-87
2023/05/24 07:59:03;;;;;;;15.73;10.17;;;;;;;41.96;36.41;101115.41;5079836;28;20976;-86
2023/05/24 08:01:33;;;;;;;21.70;10.17;;;;;;;41.96;36.49;101112.69;5088385;28;20472;-87
2023/05/24 08:04:02;;;;;;;23.30;9.50;;;;;;;42.07;36.90;101113.91;5090037;28;20420;-86
2023/05/24 08:06:32;;;;;;;21.53;11.20;;;;;;;42.10;37.32;101113.22;5092832;28;20448;-86
2023/05/24 08:08:58;;;;;;;16.47;10.13;;;;;;;42.12;36.73;101109.06;5093287;28;20432;-86
2023/05/24 08:11:24;;;;;;;17.43;11.23;;;;;;;42.13;36.77;101110.66;5092451;28;20848;-87
2023/05/24 08:13:50;;;;;;;24.23;10.97;;;;;;;42.11;36.53;101114.81;5092496;28;20424;-87
2023/05/24 08:16:16;;;;;;;16.37;12.07;;;;;;;42.14;36.80;101116.91;5092878;28;20244;-87
2023/05/24 08:18:41;;;;;;;20.53;12.60;;;;;;;42.25;35.80;101123.63;5094322;28;20462;-87
2023/05/24 08:21:07;;;;;;;21.37;11.10;;;;;;;42.19;36.48;101115.97;5099985;28;20847;-87
2023/05/24 08:23:33;;;;;;;21.37;12.10;;;;;;;42.20;36.55;101107.44;5104442;28;20185;-88
2023/05/24 08:25:59;;;;;;;19.90;10.67;;;;;;;42.25;36.59;101112.72;5098521;28;20417;-87
2023/05/24 08:28:28;;;;;;;22.77;10.17;;;;;;;42.28;36.86;101120.22;5092272;28;20440;-88
2023/05/24 08:30:54;;;;;;;30.67;13.57;;;;;;;42.06;37.30;101123.22;5085064;28;20524;-88
2023/05/24 08:33:23;;;;;;;25.23;13.70;;;;;;;42.19;37.99;101121.41;5085123;28;20432;-88
2023/05/24 08:35:52;;;;;;;17.33;10.87;;;;;;;42.30;36.88;101125.34;5079767;28;20438;-87
2023/05/24 08:38:18;;;;;;;22.00;11.17;;;;;;;42.33;37.15;101119.22;5089373;28;20421;-86
2023/05/24 08:40:44;;;;;;;21.17;10.27;;;;;;;42.35;36.80;101142.28;5092208;28;20494;-87
2023/05/24 08:43:11;;;;;;;25.03;9.80;;;;;;;42.32;37.04;101126.59;5092529;28;20202;-86
2023/05/24 08:45:38;;;;;;;18.30;10.30;;;;;;;42.38;36.85;101124.50;5087921;28;21009;-87
2023/05/24 08:48:08;;;;;;;15.57;8.53;;;;;;;42.43;36.63;101132.47;5088638;28;20527;-87
2023/05/24 08:50:34;;;;;;;19.83;8.23;;;;;;;42.50;36.39;101131.94;5078995;28;20422;-86
2023/05/24 08:53:04;;;;;;;18.17;7.03;;;;;;;42.58;37.24;101125.66;5092198;28;20443;-90
2023/05/24 08:55:31;;;;;;;18.07;9.17;;;;;;;42.57;36.62;101118.56;5092568;28;20516;-75
2023/05/24 08:57:58;;;;;;;17.53;8.00;;;;;;;42.63;36.38;101120.78;5091539;28;20425;-89
2023/05/24 09:00:25;;;;;;;12.90;6.77;;;;;;;42.62;36.33;101119.22;5088632;28;20512;-89
2023/05/24 09:02:52;;;;;;;12.20;6.00;;;;;;;42.69;36.62;101120.59;5091080;28;20523;-90
2023/05/24 09:05:20;;;;;;;16.27;6.40;;;;;;;42.68;36.24;101121.75;5091763;28;20420;-89
2023/05/24 09:07:50;;;;;;;8.93;5.00;;;;;;;42.75;36.39;101122.78;5091672;28;20521;-88
2023/05/24 09:10:23;;;;;;;14.77;6.70;;;;;;;42.75;36.42;101125.53;5090776;28;20840;-88
2023/05/24 09:12:56;;;;;;;11.90;6.13;;;;;;;42.76;36.14;101120.84;5091330;28;20464;-88
2023/05/24 09:15:23;;;;;;;11.77;5.77;;;;;;;42.82;35.67;101125.78;5089426;28;20820;-87
2023/05/24 09:17:48;;;;;;;11.47;5.70;;;;;;;42.80;35.42;101121.78;5091310;28;20421;-86
2023/05/24 09:20:15;;;;;;;10.17;5.80;;;;;;;42.70;35.38;101117.53;5089290;28;20447;-85
2023/05/24 09:22:42;;;;;;;12.07;5.70;;;;;;;42.77;35.77;101120.53;5071525;28;20663;-84
2023/05/24 09:25:11;;;;;;;15.43;5.60;;;;;;;42.79;35.26;101117.47;5087041;28;20448;-88
2023/05/24 09:27:38;;;;;;;15.23;6.33;;;;;;;42.83;35.44;101127.38;5091448;28;20796;-88
2023/05/24 09:30:11;;;;;;;24.07;6.83;;;;;;;42.76;35.30;101137.22;5091296;28;20949;-88
2023/05/24 09:32:37;;;;;;;10.40;5.93;;;;;;;42.76;35.66;101140.75;5091494;28;20459;-88
2023/05/24 09:35:08;;;;;;;15.13;6.53;;;;;;;42.77;35.75;101138.81;5091080;28;20463;-87
2023/05/24 09:37:37;;;;;;;17.13;7.07;;;;;;;42.81;36.03;101139.75;5092980;28;20425;-87
2023/05/24 09:40:05;;;;;;;10.57;5.60;;;;;;;42.85;35.85;101155.13;5092012;28;20947;-87
2023/05/24 09:42:31;;;;;;;11.20;5.47;;;;;;;42.90;35.99;101144.00;5092418;28;20484;-83
2023/05/24 09:45:02;;;;;;;18.90;7.30;;;;;;;42.92;35.66;101141.75;5091498;28;20421;-86
2023/05/24 09:47:29;;;;;;;17.50;6.03;;;;;;;42.89;36.16;101138.88;5091582;28;20432;-83
2023/05/24 09:49:55;;;;;;;15.83;6.40;;;;;;;42.91;35.89;101137.44;5091762;28;20509;-85
2023/05/24 09:52:22;;;;;;;17.83;7.40;;;;;;;42.88;36.56;101137.28;5075515;28;20436;-87
2023/05/24 09:54:48;;;;;;;18.50;7.17;;;;;;;42.90;36.58;101135.00;5091742;28;20477;-85
2023/05/24 09:57:21;;;;;;;11.60;6.20;;;;;;;42.91;36.80;101142.88;5104342;28;20536;-87
2023/05/24 09:59:48;;;;;;;13.23;6.43;;;;;;;42.84;36.19;101123.50;5078787;28;20420;-83
2023/05/24 10:02:17;;;;;;;13.60;5.87;;;;;;;42.92;36.52;101130.84;5091081;28;20465;-81
2023/05/24 10:04:44;;;;;;;10.73;4.87;;;;;;;42.91;35.90;101118.31;5090999;28;20512;-84
2023/05/24 10:07:11;;;;;;;12.27;6.30;;;;;;;42.98;35.77;101119.72;5090824;28;20424;-83
2023/05/24 10:09:41;;;;;;;15.60;5.50;;;;;;;42.83;36.07;101119.19;5091466;28;20444;-84
2023/05/24 10:12:08;;;;;;;15.27;6.40;;;;;;;42.90;35.80;101127.63;5063317;28;20485;-85
2023/05/24 10:14:37;;;;;;;18.40;7.60;;;;;;;42.93;35.84;101129.69;5086822;28;20489;-84
2023/05/24 10:17:04;;;;;;;14.97;6.30;;;;;;;42.91;36.01;101129.25;5084308;28;20940;-80
2023/05/24 10:19:34;;;;;;;17.03;4.37;;;;;;;42.87;36.40;101127.50;5080247;28;20434;-80
2023/05/24 10:22:06;;;;;;;11.30;5.70;;;;;;;42.91;36.01;101123.78;5097040;28;20417;-83
2023/05/24 10:24:58;;;;;;;13.30;5.77;;;;;;;42.73;36.29;101122.34;5070845;28;20818;-81
2023/05/24 10:27:30;;;;;;;12.10;5.67;;;;;;;42.84;36.21;101128.16;5076266;28;20429;-85
2023/05/24 10:30:19;;;;;;;12.03;6.60;;;;;;;42.84;36.05;101137.16;5090828;28;20413;-84
2023/05/24 10:32:48;;;;;;;11.77;5.90;;;;;;;42.87;36.12;101136.50;5096284;28;20441;-86
2023/05/24 10:35:15;;;;;;;12.40;6.23;;;;;;;42.77;36.12;101131.44;5081445;28;20424;-84
2023/05/24 10:37:42;;;;;;;9.77;5.63;;;;;;;42.83;36.20;101127.38;5091069;28;20416;-84
2023/05/24 10:40:18;;;;;;;18.83;5.03;;;;;;;42.86;36.53;101117.72;5085612;28;20431;-83
2023/05/24 10:42:45;;;;;;;10.40;5.60;;;;;;;42.86;36.25;101123.19;5080560;28;20456;-83
2023/05/24 10:45:26;;;;;;;16.63;6.00;;;;;;;42.90;36.08;101130.34;5102923;28;20971;-83
2023/05/24 10:47:53;;;;;;;15.43;5.63;;;;;;;42.96;36.40;101135.59;5090387;28;20424;-85
2023/05/24 10:50:20;;;;;;;14.70;6.30;;;;;;;42.96;36.17;101121.97;5090850;28;20448;-84
2023/05/24 10:52:49;;;;;;;12.90;5.83;;;;;;;42.94;36.42;101125.03;5090554;28;20421;-86
2023/05/24 10:55:18;;;;;;;12.10;6.20;;;;;;;43.02;36.32;101132.38;5090644;28;20515;-86
2023/05/24 11:01:13;;;;;;;11.70;5.37;;;;;;;43.01;35.94;101119.06;5100054;28;20431;-87
2023/05/24 11:03:40;;;;;;;16.50;6.93;;;;;;;43.09;35.91;101127.16;5095808;28;20425;-87
2023/05/24 11:06:06;;;;;;;12.03;6.83;;;;;;;43.13;35.69;101119.91;5088239;28;20431;-87
2023/05/24 11:08:34;;;;;;;17.90;6.30;;;;;;;43.00;35.86;101112.00;5090592;28;20963;-85
2023/05/24 11:11:11;;;;;;;15.83;6.60;;;;;;;42.97;36.08;101099.81;5093850;28;20463;-87
2023/05/24 11:13:45;;;;;;;13.90;5.37;;;;;;;42.87;36.37;101086.56;5082880;28;20512;-85
2023/05/24 11:16:38;;;;;;;14.50;6.37;;;;;;;42.98;36.46;101081.50;5086493;28;20423;-87
2023/05/24 11:19:16;;;;;;;12.33;5.43;;;;;;;43.06;36.22;101070.50;5100795;28;20435;-86
2023/05/24 11:21:47;;;;;;;16.13;6.27;;;;;;;42.91;36.34;101058.28;5085406;28;20456;-86